Time;durP1;ratioP1;P1;durP2;ratioP2;P2;SDS_P1;SDS_P2;PMS_P1;PMS_P2;Temp;Humidity;BMP_temperature;BMP_pressure;BME280_temperature;BME280_humidity;BME280_pressure;Samples;Min_cycle;Max_cycle;Signal;HPM_P1;HPM_P2
2023/07/26 00:00:16;;;;;;;17.12;6.82;;;;;;;34.57;nan;100339.56;143725;642;46011;-72
2023/07/26 00:02:47;;;;;;;12.60;5.82;;;;;;;34.61;nan;100337.62;143724;623;46010;-74
2023/07/26 00:05:22;;;;;;;12.13;5.93;;;;;;;34.60;nan;100336.00;143727;590;46010;-72
2023/07/26 00:07:53;;;;;;;12.52;5.97;;;;;;;34.57;nan;100342.34;143729;612;46008;-73
2023/07/26 00:10:19;;;;;;;11.75;6.87;;;;;;;34.55;nan;100336.34;143723;595;46012;-73
2023/07/26 00:12:47;;;;;;;11.95;5.78;;;;;;;34.50;nan;100336.63;143725;616;46010;-73
2023/07/26 00:15:14;;;;;;;16.92;6.07;;;;;;;34.50;nan;100333.84;143717;782;46010;-72
2023/07/26 00:17:50;;;;;;;14.25;6.85;;;;;;;34.45;nan;100328.56;143730;619;46006;-72
2023/07/26 00:20:16;;;;;;;12.10;6.07;;;;;;;34.43;nan;100330.94;143723;600;47009;-72
2023/07/26 00:22:43;;;;;;;12.55;6.50;;;;;;;34.45;nan;100332.19;143724;622;46006;-72
2023/07/26 00:25:11;;;;;;;13.57;6.40;;;;;;;34.45;nan;100320.22;143725;605;46008;-72
2023/07/26 00:27:37;;;;;;;13.30;6.32;;;;;;;34.42;nan;100318.19;143724;599;46004;-71
2023/07/26 00:30:07;;;;;;;18.62;6.60;;;;;;;34.46;nan;100324.63;143720;612;46013;-73
2023/07/26 00:32:34;;;;;;;14.80;6.90;;;;;;;34.43;nan;100317.81;143725;610;46006;-73
2023/07/26 00:35:01;;;;;;;14.30;6.93;;;;;;;34.43;nan;100322.56;143725;613;46002;-73
2023/07/26 00:37:28;;;;;;;12.05;6.37;;;;;;;34.42;nan;100315.41;143727;628;46010;-72
2023/07/26 00:39:58;;;;;;;13.57;6.80;;;;;;;34.44;nan;100315.81;143724;641;48010;-72
2023/07/26 00:42:27;;;;;;;13.10;7.68;;;;;;;34.37;nan;100308.09;143726;641;46006;-73
2023/07/26 00:45:02;;;;;;;13.98;6.37;;;;;;;34.31;nan;100309.59;143722;594;46015;-72
2023/07/26 00:47:29;;;;;;;13.40;6.62;;;;;;;34.32;nan;100308.44;143729;709;46026;-73
2023/07/26 00:49:55;;;;;;;12.27;6.80;;;;;;;34.30;nan;100302.41;143724;674;46010;-73
2023/07/26 00:52:23;;;;;;;19.15;8.23;;;;;;;34.29;nan;100301.59;143724;632;46006;-73
2023/07/26 00:54:49;;;;;;;14.77;7.50;;;;;;;34.32;nan;100294.50;143725;781;46014;-73
2023/07/26 00:57:15;;;;;;;14.82;6.93;;;;;;;34.32;nan;100291.72;143725;600;46008;-73
2023/07/26 00:59:42;;;;;;;15.10;6.68;;;;;;;34.27;nan;100292.78;143724;588;46012;-73
2023/07/26 01:02:08;;;;;;;14.50;6.75;;;;;;;34.26;nan;100295.97;143725;647;46004;-73
2023/07/26 01:04:35;;;;;;;11.43;6.25;;;;;;;34.15;nan;100302.16;143729;586;46006;-73
2023/07/26 01:07:17;;;;;;;19.42;6.18;;;;;;;34.07;nan;100303.19;143724;603;47000;-73
2023/07/26 01:10:07;;;;;;;9.95;6.20;;;;;;;34.10;nan;100294.09;143724;598;46013;-73
2023/07/26 01:12:39;;;;;;;13.00;6.10;;;;;;;34.09;nan;100295.28;143724;590;46928;-73
2023/07/26 01:15:10;;;;;;;11.65;6.40;;;;;;;34.11;nan;100294.91;143726;624;46006;-74
2023/07/26 01:17:37;;;;;;;16.70;6.22;;;;;;;34.11;nan;100283.75;143724;708;46012;-74
2023/07/26 01:20:04;;;;;;;16.05;6.10;;;;;;;34.04;nan;100292.78;143726;585;46010;-73
2023/07/26 01:22:31;;;;;;;20.25;5.93;;;;;;;33.95;nan;100287.47;143725;643;46004;-72
2023/07/26 01:24:57;;;;;;;22.73;6.10;;;;;;;33.96;nan;100283.50;143723;602;47006;-73
2023/07/26 01:27:23;;;;;;;14.70;5.82;;;;;;;33.93;nan;100289.00;143726;642;47000;-73
2023/07/26 01:29:54;;;;;;;9.80;5.30;;;;;;;33.94;nan;100283.06;143726;597;46011;-73
2023/07/26 01:32:22;;;;;;;12.20;6.62;;;;;;;34.03;nan;100268.88;143725;738;46004;-73
2023/07/26 01:34:49;;;;;;;12.77;6.07;;;;;;;33.99;nan;100271.63;143723;640;46006;-74
2023/07/26 01:37:18;;;;;;;16.55;6.53;;;;;;;33.96;nan;100266.78;143727;602;46005;-73
2023/07/26 01:39:45;;;;;;;17.23;6.25;;;;;;;33.98;nan;100272.78;143721;567;47008;-73
2023/07/26 01:42:11;;;;;;;17.10;6.35;;;;;;;34.00;nan;100272.41;143728;595;46004;-73
2023/07/26 01:44:38;;;;;;;13.88;6.35;;;;;;;34.05;nan;100272.13;143722;589;46014;-73
2023/07/26 01:47:05;;;;;;;17.20;6.03;;;;;;;34.01;nan;100262.88;143726;635;46012;-73
2023/07/26 01:49:32;;;;;;;17.90;6.03;;;;;;;33.97;nan;100273.19;143725;822;46008;-73
2023/07/26 01:51:58;;;;;;;17.80;5.78;;;;;;;34.02;nan;100267.28;143725;606;46004;-73
2023/07/26 01:54:24;;;;;;;14.30;6.05;;;;;;;33.97;nan;100268.41;143726;625;46006;-73
2023/07/26 01:56:51;;;;;;;17.42;5.78;;;;;;;33.81;nan;100268.47;143728;594;46004;-72
2023/07/26 01:59:17;;;;;;;16.62;5.75;;;;;;;33.82;nan;100269.28;143725;617;46010;-72
2023/07/26 02:01:43;;;;;;;20.62;6.10;;;;;;;33.85;nan;100268.53;143725;581;46008;-73
2023/07/26 02:04:10;;;;;;;12.73;5.72;;;;;;;33.85;nan;100271.34;143720;607;46010;-73
2023/07/26 02:06:36;;;;;;;19.12;5.85;;;;;;;33.77;nan;100264.00;143730;596;46004;-73
2023/07/26 02:09:03;;;;;;;16.37;6.45;;;;;;;33.85;nan;100262.97;143725;588;46010;-73
2023/07/26 02:11:29;;;;;;;17.05;6.50;;;;;;;33.79;nan;100264.44;143726;575;46008;-72
2023/07/26 02:13:55;;;;;;;19.00;6.12;;;;;;;33.74;nan;100270.31;143720;605;48926;-73
2023/07/26 02:16:22;;;;;;;19.65;6.68;;;;;;;33.71;nan;100267.06;143726;589;46004;-73
2023/07/26 02:18:48;;;;;;;19.00;6.53;;;;;;;33.76;nan;100259.59;143717;578;48011;-74
2023/07/26 02:21:16;;;;;;;14.18;6.03;;;;;;;33.70;nan;100267.47;143726;600;46005;-72
2023/07/26 02:23:42;;;;;;;17.37;6.75;;;;;;;33.70;nan;100268.28;143722;568;47006;-72
2023/07/26 02:26:10;;;;;;;14.23;6.35;;;;;;;33.71;nan;100255.94;143726;588;46004;-72
2023/07/26 02:28:36;;;;;;;14.23;7.10;;;;;;;33.74;nan;100257.19;143724;659;46010;-73
2023/07/26 02:31:03;;;;;;;17.98;6.65;;;;;;;33.76;nan;100259.59;143725;577;46004;-72
2023/07/26 02:33:29;;;;;;;16.92;6.65;;;;;;;33.77;nan;100256.47;143724;576;46006;-74
2023/07/26 02:35:59;;;;;;;16.52;6.57;;;;;;;33.75;nan;100255.19;143728;615;46007;-73
2023/07/26 02:38:26;;;;;;;17.30;6.93;;;;;;;33.65;nan;100248.25;143722;569;46022;-72
2023/07/26 02:40:52;;;;;;;16.40;7.05;;;;;;;33.58;nan;100253.69;143725;572;46004;-72
2023/07/26 02:43:18;;;;;;;16.83;6.32;;;;;;;33.48;nan;100260.66;143727;591;46007;-72
2023/07/26 02:45:45;;;;;;;18.95;7.32;;;;;;;33.48;nan;100255.09;143725;584;47000;-73
2023/07/26 02:48:11;;;;;;;22.37;7.18;;;;;;;33.46;nan;100241.53;143709;597;49008;-73
2023/07/26 02:50:38;;;;;;;13.85;6.80;;;;;;;33.50;nan;100239.63;143726;569;46008;-73
2023/07/26 02:53:04;;;;;;;15.73;6.72;;;;;;;33.54;nan;100248.03;143722;579;46926;-73
2023/07/26 02:55:30;;;;;;;18.12;7.65;;;;;;;33.50;nan;100245.19;143723;579;47004;-72
2023/07/26 02:57:58;;;;;;;15.20;6.78;;;;;;;33.57;nan;100255.66;143722;600;46010;-73
2023/07/26 03:00:24;;;;;;;18.95;8.60;;;;;;;33.48;nan;100255.09;143727;608;46004;-73
2023/07/26 03:02:50;;;;;;;23.45;9.68;;;;;;;33.54;nan;100254.44;143725;577;47006;-73
2023/07/26 03:05:17;;;;;;;21.85;8.10;;;;;;;33.52;nan;100247.63;143727;604;46002;-72
2023/07/26 03:07:43;;;;;;;19.45;7.43;;;;;;;33.55;nan;100244.91;143721;580;46008;-72
2023/07/26 03:10:10;;;;;;;17.90;7.10;;;;;;;33.60;nan;100237.44;143724;591;46004;-73
2023/07/26 03:12:36;;;;;;;18.83;7.15;;;;;;;33.56;nan;100237.34;143726;609;46006;-73
2023/07/26 03:15:03;;;;;;;20.50;6.55;;;;;;;33.55;nan;100239.34;143726;580;47002;-73
2023/07/26 03:17:29;;;;;;;16.80;7.32;;;;;;;33.58;nan;100240.56;143722;590;46015;-72
2023/07/26 03:19:56;;;;;;;13.88;6.57;;;;;;;33.50;nan;100238.84;143721;617;46928;-73
2023/07/26 03:22:22;;;;;;;17.05;7.12;;;;;;;33.56;nan;100229.00;143722;599;47006;-72
2023/07/26 03:24:48;;;;;;;16.10;7.55;;;;;;;33.51;nan;100252.38;143729;626;46006;-72
2023/07/26 03:27:15;;;;;;;16.40;6.57;;;;;;;33.49;nan;100231.66;143725;599;46010;-72
2023/07/26 03:29:41;;;;;;;20.42;6.95;;;;;;;33.55;nan;100233.78;143723;621;47004;-72
2023/07/26 03:32:08;;;;;;;24.95;7.40;;;;;;;33.52;nan;100234.50;143723;576;46006;-74
2023/07/26 03:34:34;;;;;;;13.75;6.32;;;;;;;33.55;nan;100242.12;143729;583;46004;-74
2023/07/26 03:37:01;;;;;;;19.27;8.07;;;;;;;33.57;nan;100238.97;143727;585;46924;-73
2023/07/26 03:39:28;;;;;;;21.58;6.80;;;;;;;33.46;nan;100232.38;143726;577;46008;-73
2023/07/26 03:41:54;;;;;;;23.70;6.85;;;;;;;33.51;nan;100232.09;143724;577;46013;-72
2023/07/26 03:44:20;;;;;;;19.12;6.72;;;;;;;33.45;nan;100228.78;143725;603;47006;-73
2023/07/26 03:46:47;;;;;;;19.40;6.18;;;;;;;33.46;nan;100227.59;143723;583;47008;-73
2023/07/26 03:49:13;;;;;;;17.20;6.25;;;;;;;33.39;nan;100221.91;143724;609;46008;-73
2023/07/26 03:51:39;;;;;;;20.65;6.87;;;;;;;33.40;nan;100217.97;143722;594;47006;-73
2023/07/26 03:54:06;;;;;;;19.10;6.68;;;;;;;33.42;nan;100215.62;143725;596;48002;-73
2023/07/26 03:56:32;;;;;;;23.27;7.45;;;;;;;33.49;nan;100223.31;143726;570;46010;-73
2023/07/26 03:58:59;;;;;;;20.88;6.35;;;;;;;33.44;nan;100226.38;143725;567;46009;-72
2023/07/26 04:01:25;;;;;;;26.70;6.75;;;;;;;33.39;nan;100230.25;143726;582;46006;-73
2023/07/26 04:03:52;;;;;;;21.30;6.12;;;;;;;33.37;nan;100236.19;143727;584;46004;-72
2023/07/26 04:06:18;;;;;;;17.10;5.95;;;;;;;33.35;nan;100235.75;143724;592;46011;-71
2023/07/26 04:08:45;;;;;;;19.10;6.03;;;;;;;33.44;nan;100229.97;143726;573;46004;-72
2023/07/26 04:11:12;;;;;;;20.95;7.37;;;;;;;33.50;nan;100239.63;143727;581;46006;-71
2023/07/26 04:13:38;;;;;;;15.80;5.85;;;;;;;33.49;nan;100226.87;143726;583;46010;-73
2023/07/26 04:16:17;;;;;;;14.13;6.12;;;;;;;33.46;nan;100235.16;143723;610;46014;-73
2023/07/26 04:18:44;;;;;;;10.55;5.32;;;;;;;33.45;nan;100237.13;143725;613;46004;-73
2023/07/26 04:21:13;;;;;;;19.17;6.20;;;;;;;33.48;nan;100236.41;143722;592;46006;-73
2023/07/26 04:23:40;;;;;;;14.68;5.90;;;;;;;33.55;nan;100242.12;143724;597;48000;-74
2023/07/26 04:26:07;;;;;;;13.55;5.57;;;;;;;33.62;nan;100249.00;143724;606;46021;-72
2023/07/26 04:28:34;;;;;;;22.20;6.70;;;;;;;33.62;nan;100260.16;143725;595;46004;-73
2023/07/26 04:31:00;;;;;;;21.35;7.10;;;;;;;33.59;nan;100261.69;143724;567;46006;-72
2023/07/26 04:33:26;;;;;;;24.75;6.87;;;;;;;33.66;nan;100272.16;143726;592;46006;-73
2023/07/26 04:35:53;;;;;;;19.40;7.32;;;;;;;33.68;nan;100267.84;143726;606;46924;-72
2023/07/26 04:38:19;;;;;;;20.02;5.82;;;;;;;33.77;nan;100267.59;143724;596;47928;-72
2023/07/26 04:40:47;;;;;;;17.75;6.75;;;;;;;33.84;nan;100276.06;143728;607;46006;-73
2023/07/26 04:43:19;;;;;;;17.08;6.62;;;;;;;33.87;nan;100268.97;143727;605;47002;-72
2023/07/26 04:45:47;;;;;;;20.50;7.55;;;;;;;33.91;nan;100269.88;143726;612;46010;-74
2023/07/26 04:48:13;;;;;;;18.23;6.37;;;;;;;33.96;nan;100266.00;143720;581;47013;-73
2023/07/26 04:50:40;;;;;;;36.42;10.45;;;;;;;33.99;nan;100262.44;143727;577;46006;-72
2023/07/26 04:53:06;;;;;;;33.05;8.55;;;;;;;34.04;nan;100259.34;143727;579;46004;-73
2023/07/26 04:55:33;;;;;;;30.60;7.53;;;;;;;34.08;nan;100257.44;143723;640;46010;-72
2023/07/26 04:57:59;;;;;;;32.85;7.72;;;;;;;34.17;nan;100259.97;143723;572;48004;-73
2023/07/26 05:00:26;;;;;;;24.30;7.90;;;;;;;34.23;nan;100264.09;143726;572;46019;-72
2023/07/26 05:02:52;;;;;;;27.75;7.50;;;;;;;34.30;nan;100266.97;143724;620;47000;-73
2023/07/26 05:05:19;;;;;;;29.05;7.30;;;;;;;34.37;nan;100273.84;143727;640;46011;-73
2023/07/26 05:07:45;;;;;;;34.35;8.15;;;;;;;34.36;nan;100261.88;143725;603;46004;-72
2023/07/26 05:10:12;;;;;;;26.90;8.43;;;;;;;34.40;nan;100264.75;143726;827;47006;-71
2023/07/26 05:12:38;;;;;;;25.05;7.10;;;;;;;34.38;nan;100267.09;143728;580;46002;-71
2023/07/26 05:15:05;;;;;;;22.52;8.05;;;;;;;34.38;nan;100261.53;143722;599;46008;-72
2023/07/26 05:17:31;;;;;;;31.25;8.05;;;;;;;34.46;nan;100271.63;143722;588;46012;-72
2023/07/26 05:19:59;;;;;;;25.92;8.23;;;;;;;34.44;nan;100277.59;143720;643;47006;-72
2023/07/26 05:22:25;;;;;;;32.10;8.27;;;;;;;34.51;nan;100273.31;143728;615;46004;-72
2023/07/26 05:24:51;;;;;;;38.67;11.12;;;;;;;34.61;nan;100281.03;143726;569;46012;-71
2023/07/26 05:27:18;;;;;;;24.90;7.82;;;;;;;34.73;nan;100277.25;143723;579;46004;-72
2023/07/26 05:29:44;;;;;;;28.67;9.38;;;;;;;34.80;nan;100282.13;143721;677;49005;-72
2023/07/26 05:32:11;;;;;;;20.70;6.70;;;;;;;34.94;nan;100274.00;143729;572;46006;-74
2023/07/26 05:34:37;;;;;;;25.02;7.20;;;;;;;35.00;nan;100268.88;143725;569;46010;-72
2023/07/26 05:37:04;;;;;;;29.27;7.10;;;;;;;35.07;nan;100269.00;143728;597;46004;-73
2023/07/26 05:39:32;;;;;;;22.45;7.68;;;;;;;35.16;nan;100272.28;143726;591;46006;-73
2023/07/26 05:41:58;;;;;;;24.45;8.80;;;;;;;35.16;nan;100271.50;143725;576;46003;-73
2023/07/26 05:44:24;;;;;;;21.23;8.18;;;;;;;35.25;nan;100274.78;143719;852;47010;-73
2023/07/26 05:46:50;;;;;;;29.40;7.93;;;;;;;35.33;nan;100282.09;143725;572;46004;-73
2023/07/26 05:49:16;;;;;;;28.95;8.00;;;;;;;35.39;nan;100270.59;143726;645;46007;-73
2023/07/26 05:51:43;;;;;;;22.42;7.65;;;;;;;35.45;nan;100274.66;143728;838;46006;-72
2023/07/26 05:54:09;;;;;;;21.87;7.70;;;;;;;35.51;nan;100264.78;143727;621;46010;-72
2023/07/26 05:56:35;;;;;;;26.20;7.93;;;;;;;35.63;nan;100272.09;143726;572;46004;-72
2023/07/26 05:59:02;;;;;;;28.05;8.32;;;;;;;35.74;nan;100277.81;143728;575;46006;-72
2023/07/26 06:01:28;;;;;;;23.05;6.87;;;;;;;35.81;nan;100252.72;143727;788;46002;-73
2023/07/26 06:03:55;;;;;;;23.33;7.53;;;;;;;35.96;nan;100262.88;143728;766;46010;-73
2023/07/26 06:06:21;;;;;;;31.37;9.00;;;;;;;35.99;nan;100275.31;143727;576;46004;-72
2023/07/26 06:08:48;;;;;;;22.77;7.87;;;;;;;35.94;nan;100265.22;143721;567;46006;-73
2023/07/26 06:11:14;;;;;;;24.95;7.70;;;;;;;35.90;nan;100256.03;143729;679;46006;-73
2023/07/26 06:13:40;;;;;;;21.85;6.50;;;;;;;35.95;nan;100252.09;143723;659;47008;-73
2023/07/26 06:16:07;;;;;;;17.67;7.97;;;;;;;36.03;nan;100262.16;143719;574;46008;-73
2023/07/26 06:18:33;;;;;;;19.60;7.85;;;;;;;36.05;nan;100264.56;143730;680;45010;-74
2023/07/26 06:20:59;;;;;;;19.23;7.12;;;;;;;36.11;nan;100260.22;143727;581;47010;-73
2023/07/26 06:23:26;;;;;;;20.55;8.20;;;;;;;36.27;nan;100260.75;143728;575;46010;-73
2023/07/26 06:25:52;;;;;;;30.80;8.52;;;;;;;36.37;nan;100259.25;143721;569;48002;-73
2023/07/26 06:28:18;;;;;;;23.45;7.82;;;;;;;36.21;nan;100250.31;143725;572;46006;-73
2023/07/26 06:30:45;;;;;;;17.73;7.40;;;;;;;36.22;nan;100243.53;143727;595;46002;-73
2023/07/26 06:33:11;;;;;;;24.20;9.38;;;;;;;36.44;nan;100252.09;143725;665;46924;-75
2023/07/26 06:35:37;;;;;;;19.12;7.60;;;;;;;36.44;nan;100246.50;143722;625;46008;-72
2023/07/26 06:38:04;;;;;;;19.87;7.87;;;;;;;36.50;nan;100242.19;143728;746;46006;-73
2023/07/26 06:40:30;;;;;;;17.20;7.57;;;;;;;36.58;nan;100246.63;143728;610;47002;-71
2023/07/26 06:42:56;;;;;;;17.10;8.20;;;;;;;36.64;nan;100245.09;143729;567;46008;-71
2023/07/26 06:45:23;;;;;;;22.90;9.40;;;;;;;36.62;nan;100244.69;143728;755;46004;-72
2023/07/26 06:47:49;;;;;;;19.77;10.52;;;;;;;36.63;nan;100232.28;143726;593;46006;-74
2023/07/26 06:50:16;;;;;;;17.95;7.55;;;;;;;36.71;nan;100238.72;143729;763;46006;-72
2023/07/26 06:52:42;;;;;;;17.35;7.90;;;;;;;36.72;nan;100231.94;143729;838;46010;-72
2023/07/26 06:55:08;;;;;;;19.27;8.95;;;;;;;36.74;nan;100225.94;143724;575;46009;-72
2023/07/26 06:57:35;;;;;;;22.13;7.78;;;;;;;36.79;nan;100226.41;143726;627;46006;-72
2023/07/26 07:00:01;;;;;;;14.10;7.75;;;;;;;36.66;nan;100223.13;143725;584;47006;-71
2023/07/26 07:02:28;;;;;;;19.45;7.57;;;;;;;36.55;nan;100222.22;143725;588;46012;-71
2023/07/26 07:04:54;;;;;;;15.45;7.43;;;;;;;36.52;nan;100223.03;143719;576;49016;-73
2023/07/26 07:07:20;;;;;;;13.48;7.22;;;;;;;36.78;nan;100230.41;143724;594;46011;-73
2023/07/26 07:09:47;;;;;;;14.95;8.05;;;;;;;36.79;nan;100234.81;143729;617;46014;-71
2023/07/26 07:12:15;;;;;;;24.00;8.07;;;;;;;36.92;nan;100226.06;143724;596;47019;-72
2023/07/26 07:14:41;;;;;;;13.55;8.57;;;;;;;37.06;nan;100220.56;143727;609;46006;-71
2023/07/26 07:17:08;;;;;;;14.13;6.78;;;;;;;37.19;nan;100214.59;143725;606;46015;-73
2023/07/26 07:19:34;;;;;;;16.73;8.77;;;;;;;37.34;nan;100210.66;143731;611;46002;-72
2023/07/26 07:22:01;;;;;;;20.73;10.05;;;;;;;37.36;nan;100211.06;143727;601;46008;-73
2023/07/26 07:24:27;;;;;;;19.80;7.15;;;;;;;37.38;nan;100200.25;143721;581;46930;-73
2023/07/26 07:26:53;;;;;;;20.92;8.45;;;;;;;37.45;nan;100197.53;143726;594;46010;-71
2023/07/26 07:29:19;;;;;;;15.95;9.90;;;;;;;37.64;nan;100200.34;143728;615;46004;-73
2023/07/26 07:31:46;;;;;;;17.33;7.15;;;;;;;37.75;nan;100192.78;143725;628;49004;-72
2023/07/26 07:34:12;;;;;;;18.33;13.13;;;;;;;37.85;nan;100186.34;143727;579;46004;-73
2023/07/26 07:36:38;;;;;;;15.13;7.75;;;;;;;37.90;nan;100191.59;143729;630;46006;-72
2023/07/26 07:39:07;;;;;;;16.50;8.13;;;;;;;37.93;nan;100192.78;143727;627;47002;-70
2023/07/26 07:41:35;;;;;;;23.15;8.95;;;;;;;37.87;nan;100197.97;143724;576;47002;-71
2023/07/26 07:44:01;;;;;;;15.57;9.40;;;;;;;37.84;nan;100198.75;143725;576;47002;-71
2023/07/26 07:46:28;;;;;;;19.12;8.57;;;;;;;37.79;nan;100198.38;143720;662;47006;-71
2023/07/26 07:48:56;;;;;;;16.30;8.00;;;;;;;37.70;nan;100196.75;143732;607;46006;-69
2023/07/26 07:51:22;;;;;;;18.60;8.10;;;;;;;37.57;nan;100201.12;143731;619;46004;-71
2023/07/26 07:53:49;;;;;;;14.55;7.32;;;;;;;37.41;nan;100193.09;143725;572;47002;-71
2023/07/26 07:56:15;;;;;;;12.45;7.78;;;;;;;37.51;nan;100194.34;143725;575;46007;-71
2023/07/26 07:58:41;;;;;;;15.20;7.32;;;;;;;37.46;nan;100192.69;143724;599;48004;-72
2023/07/26 08:01:08;;;;;;;16.65;7.78;;;;;;;37.57;nan;100190.75;143731;579;45926;-72
2023/07/26 08:03:34;;;;;;;15.50;8.32;;;;;;;37.66;nan;100175.53;143727;590;46005;-72
2023/07/26 08:06:00;;;;;;;15.85;7.53;;;;;;;37.92;nan;100182.78;143728;567;46004;-71
2023/07/26 08:08:27;;;;;;;14.35;7.10;;;;;;;38.15;nan;100182.38;143727;603;46010;-71
2023/07/26 08:10:53;;;;;;;17.62;7.70;;;;;;;38.34;nan;100178.34;143725;568;46022;-71
2023/07/26 08:13:20;;;;;;;15.95;7.40;;;;;;;38.48;nan;100173.94;143727;578;46004;-72
2023/07/26 08:15:46;;;;;;;19.87;7.57;;;;;;;38.65;nan;100167.47;143728;572;46006;-72
2023/07/26 08:18:13;;;;;;;13.70;7.95;;;;;;;38.76;nan;100164.62;143732;665;46006;-75
2023/07/26 08:20:40;;;;;;;19.45;7.93;;;;;;;38.94;nan;100158.19;143724;569;46010;-72
2023/07/26 08:23:06;;;;;;;19.87;9.65;;;;;;;39.03;nan;100163.34;143726;583;47002;-73
2023/07/26 08:25:33;;;;;;;23.42;7.97;;;;;;;39.11;nan;100159.28;143730;596;46006;-73
2023/07/26 08:27:59;;;;;;;15.20;7.65;;;;;;;39.20;nan;100161.63;143728;611;46004;-72
2023/07/26 08:30:26;;;;;;;19.12;8.25;;;;;;;39.34;nan;100163.59;143729;572;46010;-73
2023/07/26 08:32:52;;;;;;;17.85;8.13;;;;;;;39.31;nan;100170.03;143725;609;47002;-74
2023/07/26 08:35:19;;;;;;;13.65;6.85;;;;;;;39.52;nan;100169.91;143726;596;46006;-72
2023/07/26 08:37:45;;;;;;;19.48;7.15;;;;;;;39.60;nan;100169.84;143727;588;47002;-72
2023/07/26 08:40:12;;;;;;;13.62;7.65;;;;;;;39.60;nan;100164.25;143728;581;46010;-73
2023/07/26 08:42:39;;;;;;;15.65;6.78;;;;;;;39.61;nan;100155.37;143724;633;46024;-73
2023/07/26 08:45:07;;;;;;;17.23;7.85;;;;;;;39.40;nan;100156.34;143726;592;46923;-74
2023/07/26 08:47:35;;;;;;;14.45;6.60;;;;;;;39.33;nan;100157.19;143727;589;46004;-72
2023/07/26 08:50:04;;;;;;;25.23;6.82;;;;;;;39.36;nan;100150.72;143724;588;47008;-75
2023/07/26 08:52:30;;;;;;;15.25;6.35;;;;;;;39.45;nan;100143.88;143723;728;47002;-71
2023/07/26 08:54:57;;;;;;;19.00;6.78;;;;;;;39.49;nan;100137.00;143728;577;46009;-64
2023/07/26 08:57:28;;;;;;;13.88;6.43;;;;;;;39.64;nan;100136.88;143727;577;46004;-72
2023/07/26 08:59:55;;;;;;;22.25;6.40;;;;;;;39.79;nan;100131.97;143724;581;47010;-74
2023/07/26 09:02:23;;;;;;;17.42;7.05;;;;;;;40.02;nan;100128.56;143728;570;46012;-71
2023/07/26 09:04:49;;;;;;;20.55;6.65;;;;;;;40.15;nan;100129.66;143726;578;46006;-63
2023/07/26 09:07:16;;;;;;;19.15;6.07;;;;;;;40.27;nan;100114.25;143728;583;46004;-64
2023/07/26 09:09:42;;;;;;;19.87;6.45;;;;;;;40.54;nan;100119.19;143730;573;46004;-64
2023/07/26 09:12:09;;;;;;;21.58;6.40;;;;;;;40.87;nan;100107.53;143726;629;46013;-64
2023/07/26 09:14:35;;;;;;;16.60;6.00;;;;;;;40.96;nan;100104.19;143721;593;47009;-65
2023/07/26 09:17:04;;;;;;;17.95;5.30;;;;;;;41.10;nan;100091.94;143730;647;46004;-63
2023/07/26 09:19:35;;;;;;;19.02;6.62;;;;;;;41.27;nan;100095.72;143723;751;47004;-63
2023/07/26 09:22:08;;;;;;;21.90;6.80;;;;;;;41.64;nan;100105.22;143727;743;47004;-65
2023/07/26 09:24:40;;;;;;;15.70;5.95;;;;;;;41.75;nan;100088.91;143727;593;46007;-64
2023/07/26 09:27:12;;;;;;;26.52;6.37;;;;;;;41.79;nan;100088.84;143731;603;46002;-64
2023/07/26 09:29:41;;;;;;;19.87;6.40;;;;;;;41.82;nan;100083.16;143726;581;46010;-73
2023/07/26 09:32:08;;;;;;;17.62;6.43;;;;;;;42.08;nan;100077.84;143728;595;46009;-72
2023/07/26 09:34:35;;;;;;;25.15;6.47;;;;;;;42.37;nan;100070.87;143723;591;46006;-72
2023/07/26 09:37:02;;;;;;;21.20;7.18;;;;;;;42.66;nan;100084.34;143730;585;46004;-72
2023/07/26 09:39:29;;;;;;;20.23;7.82;;;;;;;42.82;nan;100087.25;143729;573;46010;-70
2023/07/26 09:42:06;;;;;;;24.83;7.43;;;;;;;42.86;nan;100090.03;143728;586;46004;-71
2023/07/26 09:44:35;;;;;;;17.90;8.38;;;;;;;42.84;nan;100075.53;143729;607;46006;-72
2023/07/26 09:47:02;;;;;;;18.37;7.30;;;;;;;43.09;nan;100062.84;143729;573;46011;-72
2023/07/26 09:49:29;;;;;;;18.50;6.90;;;;;;;43.25;nan;100051.56;143723;615;46010;-72
2023/07/26 09:51:58;;;;;;;19.55;7.15;;;;;;;43.36;nan;100056.94;143723;657;47004;-64
2023/07/26 09:54:27;;;;;;;22.45;6.57;;;;;;;43.32;nan;100054.22;143731;573;46006;-63
2023/07/26 09:56:58;;;;;;;20.45;7.15;;;;;;;43.00;nan;100052.97;143730;668;46004;-64
2023/07/26 09:59:26;;;;;;;22.55;6.62;;;;;;;43.14;nan;100042.53;143728;578;46010;-64
2023/07/26 10:01:56;;;;;;;23.90;6.28;;;;;;;43.10;nan;100041.81;143723;692;46009;-63
2023/07/26 10:04:49;;;;;;;20.17;5.60;;;;;;;43.29;nan;100026.84;143725;653;46925;-64
2023/07/26 10:07:16;;;;;;;21.02;7.12;;;;;;;43.47;nan;100017.09;143725;597;46009;-62
2023/07/26 10:09:47;;;;;;;21.90;7.85;;;;;;;43.70;nan;100021.75;143726;614;46010;-65
2023/07/26 10:12:15;;;;;;;18.15;6.18;;;;;;;43.93;nan;100019.94;143728;632;46004;-63
2023/07/26 10:14:42;;;;;;;19.50;6.78;;;;;;;44.18;nan;100007.13;143721;657;47006;-63
2023/07/26 10:17:12;;;;;;;21.40;6.60;;;;;;;44.27;nan;100006.47;143732;610;46002;-63
2023/07/26 10:19:41;;;;;;;15.50;5.85;;;;;;;44.30;nan;100009.19;143727;647;47010;-64
2023/07/26 10:22:09;;;;;;;27.45;6.35;;;;;;;44.52;nan;100012.19;143728;627;46004;-64
2023/07/26 10:24:37;;;;;;;16.87;6.10;;;;;;;44.43;nan;100019.72;143723;689;48000;-64
2023/07/26 10:27:05;;;;;;;22.20;6.75;;;;;;;44.12;nan;100004.06;143729;637;46002;-64
2023/07/26 10:29:31;;;;;;;25.33;7.15;;;;;;;44.16;nan;100018.09;143721;583;47010;-63
2023/07/26 10:32:06;;;;;;;18.37;6.35;;;;;;;44.11;nan;100010.97;143725;651;46004;-64
2023/07/26 10:34:33;;;;;;;18.77;6.03;;;;;;;44.18;nan;100004.31;143728;645;46006;-66
2023/07/26 10:36:59;;;;;;;22.52;6.28;;;;;;;44.16;nan;100007.56;143730;618;46004;-65
2023/07/26 10:39:32;;;;;;;23.62;6.40;;;;;;;44.16;nan;100003.97;143724;680;46010;-65
2023/07/26 10:41:59;;;;;;;19.12;6.82;;;;;;;44.31;nan;100007.13;143727;584;46004;-66
2023/07/26 10:44:25;;;;;;;21.30;5.93;;;;;;;44.48;nan;100002.22;143726;580;46006;-66
2023/07/26 10:47:00;;;;;;;21.27;7.12;;;;;;;44.40;nan;99997.97;143728;681;46004;-66
2023/07/26 10:49:29;;;;;;;27.48;7.22;;;;;;;44.16;nan;99996.25;143724;633;47008;-66
2023/07/26 10:52:02;;;;;;;28.12;6.32;;;;;;;44.05;nan;99988.06;143724;645;46930;-66
2023/07/26 10:54:48;;;;;;;25.52;6.18;;;;;;;44.02;nan;99980.47;143719;581;49003;-66
2023/07/26 10:57:36;;;;;;;20.42;6.10;;;;;;;44.29;nan;99972.84;143725;590;47002;-66
2023/07/26 11:00:10;;;;;;;21.77;6.47;;;;;;;44.48;nan;99960.53;143728;572;46015;-66
2023/07/26 11:02:44;;;;;;;20.80;6.90;;;;;;;44.54;nan;99951.47;143727;584;46004;-66
2023/07/26 11:05:32;;;;;;;23.02;6.80;;;;;;;44.56;nan;99955.44;143727;821;46006;-66
2023/07/26 11:08:08;;;;;;;22.92;6.40;;;;;;;44.73;nan;99941.16;143728;677;46011;-66
2023/07/26 11:10:51;;;;;;;18.83;6.10;;;;;;;44.85;nan;99934.69;143730;602;46004;-66
2023/07/26 11:13:19;;;;;;;19.62;6.87;;;;;;;44.73;nan;99939.09;143725;588;46008;-66
2023/07/26 11:15:48;;;;;;;24.87;6.53;;;;;;;44.55;nan;99928.38;143727;585;46006;-67
2023/07/26 11:18:15;;;;;;;31.33;7.90;;;;;;;44.52;nan;99938.56;143729;569;46004;-66
2023/07/26 11:20:50;;;;;;;21.73;7.55;;;;;;;44.43;nan;99943.28;143729;619;46010;-65
2023/07/26 11:23:22;;;;;;;51.28;11.05;;;;;;;44.42;nan;99930.38;143721;570;47002;-65
2023/07/26 11:25:50;;;;;;;34.53;7.90;;;;;;;44.48;nan;99954.06;143723;670;46006;-65
2023/07/26 11:28:17;;;;;;;50.75;9.48;;;;;;;44.37;nan;99949.53;143727;600;48002;-65
2023/07/26 11:30:49;;;;;;;49.92;14.27;;;;;;;44.48;nan;99940.69;143729;580;46010;-64
2023/07/26 11:33:44;;;;;;;41.58;8.25;;;;;;;44.75;nan;99915.97;143722;582;46016;-66
2023/07/26 11:36:20;;;;;;;70.10;10.48;;;;;;;44.87;nan;99923.72;143723;588;46006;-65